Latest Coastal Weather Observations for Low Rocky Point

IDT60701

Issued at 10:52 pm EDT Friday 23 October 2020 (issued every 10 minutes, with the page automatically refreshed every 10 minutes)

About coastal observations | Map of coastal stations | Coastal observations for TAS | Marine services | Other Formats
Station Details ID: 097080 Name: LOW ROCKY POINT Lat: -42.98 Lon: 145.50 Height: 34.0 m
Data from the previous 72 hours. | See also: Recent months at Low Rocky Point
Date/Time
EDT
Wind Sea
Height
m
Swell Vis
km
Cloud Weather Temp
°C
Press
MSL
hPa
Rain since
9am
mm
Dir  Spd
kts
Gust
kts
Height
m
Period
s
Dir
23/10:30pm WNW 11 13 - - - - - - - 11.8 1005.7 -
23/10:00pm W 12 14 - - - - - - - 11.9 1005.8 -
23/09:30pm WNW 12 13 - - - - - - - 11.9 1005.9 -
23/09:00pm NW 8 11 - - - - - - - 11.9 1005.8 -
23/08:30pm NNW 9 12 - - - - - - - 12.0 1005.9 -
23/08:00pm NW 9 12 - - - - - - - 12.0 1005.6 -
23/07:30pm NW 9 11 - - - - - - - 12.4 1005.3 -
23/07:00pm NW 9 11 - - - - - - - 12.1 1005.6 -
23/06:30pm NNW 10 13 - - - - - - - 11.7 1005.8 -
23/06:00pm NW 12 15 - - - - - - - 12.3 1006.1 -
23/05:30pm NW 13 16 - - - - - - - 12.7 1006.0 -
23/05:00pm NW 14 16 - - - - - - - 13.3 1005.7 -
23/04:30pm NW 14 17 - - - - - - - 13.8 1006.0 -
23/04:00pm NW 16 20 - - - - - - - 14.1 1006.1 -
23/03:30pm NW 15 17 - - - - - - - 15.1 1006.3 -
23/03:00pm NW 15 17 - - - - - - - 16.1 1006.7 -
23/02:30pm NW 12 15 - - - - - - - 16.3 1007.0 -
23/02:00pm NW 12 15 - - - - - - - 16.2 1007.3 -
23/01:30pm NW 11 13 - - - - - - - 14.0 1007.8 -
23/01:00pm NW 11 13 - - - - - - - 14.9 1008.1 -
23/12:30pm NNW 8 11 - - - - - - - 15.0 1008.5 -
23/12:00pm NW 7 8 - - - - - - - 14.3 1009.0 -
23/11:30am NW 7 9 - - - - - - - 13.1 1009.4 -
23/11:00am NW 7 8 - - - - - - - 13.5 1009.5 -
23/10:30am NW 5 7 - - - - - - - 13.5 1009.5 -
23/10:00am NW 7 8 - - - - - - - 13.4 1009.8 -
23/09:30am NW 6 7 - - - - - - - 13.0 1010.1 -
23/09:00am ENE 4 6 - - - - - - - 12.8 1010.2 -
23/08:30am NE 5 6 - - - - - - - 11.8 1010.5 -
23/08:00am NE 3 5 - - - - - - - 10.9 1010.7 -
23/07:30am NE 5 5 - - - - - - - 9.4 1011.0 -
23/07:00am CALM 0 0 - - - - - - - 9.4 1011.2 -
23/06:30am CALM 0 0 - - - - - - - 8.5 1010.9 -
23/06:00am CALM 0 0 - - - - - - - 8.0 1010.7 -
23/05:30am N 2 4 - - - - - - - 7.8 1010.6 -
23/05:00am NNE 5 6 - - - - - - - 7.5 1010.6 -
23/04:30am NE 3 5 - - - - - - - 7.8 1010.6 -
23/04:00am NNE 3 4 - - - - - - - 8.3 1011.1 -
23/03:30am NNE 4 7 - - - - - - - 8.0 1011.5 -
23/03:00am NE 3 5 - - - - - - - 7.9 1011.6 -
23/02:30am NNE 5 6 - - - - - - - 7.9 1012.1 -
23/02:00am NNE 4 5 - - - - - - - 8.1 1012.7 -
23/01:30am NE 7 8 - - - - - - - 7.7 1013.0 -
23/01:00am NE 7 8 - - - - - - - 7.9 1013.4 -
23/12:30am NE 6 7 - - - - - - - 7.6 1013.9 -
23/12:00am ENE 5 5 - - - - - - - 6.7 1014.1 -
 
Date/Time
EDT
Wind Sea
Height
m
Swell Vis
km
Cloud Weather Temp
°C
Press
MSL
hPa
Rain since
9am
mm
Dir  Spd
kts
Gust
kts
Height
m
Period
s
Dir
22/11:30pm ENE 5 5 - - - - - - - 6.7 1014.4 -
22/11:00pm ENE 5 6 - - - - - - - 6.8 1014.7 -
22/10:30pm ENE 5 6 - - - - - - - 7.1 1015.0 -
22/10:00pm ENE 4 4 - - - - - - - 7.4 1015.1 -
22/09:30pm ESE 6 7 - - - - - - - 8.0 1015.1 -
22/09:00pm ESE 6 7 - - - - - - - 8.0 1015.1 -
22/08:30pm SE 6 8 - - - - - - - 8.2 1015.2 -
22/08:00pm SE 6 7 - - - - - - - 8.7 1015.3 -
22/07:30pm SE 5 7 - - - - - - - 10.2 1015.4 -
22/07:00pm SE 6 8 - - - - - - - 11.3 1015.4 -
22/06:30pm SSE 6 8 - - - - - - - 12.0 1015.4 -
22/06:00pm SSE 7 9 - - - - - - - 12.8 1015.4 -
22/05:30pm SSE 7 11 - - - - - - - 13.2 1015.3 -
22/05:00pm SSE 7 10 - - - - - - - 13.4 1015.5 -
22/04:30pm S 7 10 - - - - - - - 13.4 1016.0 -
22/04:00pm S 8 10 - - - - - - - 13.4 1016.3 -
22/03:30pm S 8 10 - - - - - - - 13.7 1016.5 -
22/03:00pm S 9 12 - - - - - - - 13.1 1016.5 -
22/02:30pm S 9 12 - - - - - - - 14.2 1016.7 -
22/02:00pm SSW 9 11 - - - - - - - 14.2 1016.8 -
22/01:30pm SSW 8 11 - - - - - - - 14.7 1016.8 -
22/01:00pm SW 8 11 - - - - - - - 14.5 1016.9 -
22/12:30pm SW 9 11 - - - - - - - 14.1 1017.2 -
22/12:00pm SW 8 10 - - - - - - - 13.4 1017.4 -
22/11:30am WSW 7 10 - - - - - - - 13.0 1017.7 -
22/11:00am SW 7 10 - - - - - - - 13.4 1017.8 -
22/10:30am S 5 7 - - - - - - - 12.8 1017.6 -
22/10:00am S 5 8 - - - - - - - 12.2 1017.6 -
22/09:30am SSE 5 6 - - - - - - - 12.2 1017.7 -
22/09:00am S 4 7 - - - - - - - 11.6 1017.8 -
22/08:30am S 4 5 - - - - - - - 11.0 1017.6 -
22/08:00am CALM 0 3 - - - - - - - 10.6 1017.4 -
22/07:30am NE 2 4 - - - - - - - 9.2 1017.4 -
22/07:00am NE 3 5 - - - - - - - 7.9 1017.2 -
22/06:30am ESE 1 3 - - - - - - - 8.3 1016.9 -
22/06:00am SSW 6 7 - - - - - - - 8.4 1016.7 -
22/05:30am SSW 5 7 - - - - - - - 8.6 1016.7 -
22/05:00am SSW 6 8 - - - - - - - 8.8 1016.5 -
22/04:30am CALM 0 0 - - - - - - - 8.8 1016.6 -
22/04:00am WNW 2 4 - - - - - - - 8.8 1016.7 -
22/03:30am NW 3 4 - - - - - - - 8.7 1016.8 -
22/03:00am NNW 3 5 - - - - - - - 8.8 1016.7 -
22/02:30am W 5 6 - - - - - - - 9.6 1016.7 -
22/02:00am WSW 5 6 - - - - - - - 9.6 1017.0 -
22/01:30am W 5 6 - - - - - - - 9.8 1017.2 -
22/01:00am WSW 6 7 - - - - - - - 9.7 1017.3 -
22/12:30am WSW 5 6 - - - - - - - 9.8 1017.4 -
22/12:00am WSW 5 6 - - - - - - - 9.8 1017.5 -
 
Date/Time
EDT
Wind Sea
Height
m
Swell Vis
km
Cloud Weather Temp
°C
Press
MSL
hPa
Rain since
9am
mm
Dir  Spd
kts
Gust
kts
Height
m
Period
s
Dir
21/11:30pm WSW 5 7 - - - - - - - 10.2 1017.5 -
21/11:00pm WSW 5 6 - - - - - - - 10.2 1017.4 -
21/10:30pm SW 4 6 - - - - - - - 10.2 1017.2 -
21/10:00pm SW 6 8 - - - - - - - 10.3 1017.3 -
21/09:30pm SW 6 9 - - - - - - - 10.6 1017.2 -
21/09:00pm SW 7 9 - - - - - - - 11.1 1017.0 -
21/08:30pm SW 7 9 - - - - - - - 11.1 1016.6 -
21/08:00pm SW 9 11 - - - - - - - 11.3 1016.2 -
21/07:30pm WSW 7 9 - - - - - - - 11.7 1015.9 -
21/07:00pm WSW 7 9 - - - - - - - 12.4 1015.5 -
21/06:30pm WSW 8 9 - - - - - - - 12.6 1015.4 -
21/06:00pm WNW 11 13 - - - - - - - 13.1 1015.2 -
21/05:30pm WNW 10 13 - - - - - - - 13.6 1015.1 -
21/05:00pm WNW 11 13 - - - - - - - 14.8 1015.1 -
21/04:30pm WNW 12 14 - - - - - - - 14.0 1015.0 -
21/04:00pm WNW 11 13 - - - - - - - 15.9 1015.1 -
21/03:30pm WNW 12 14 - - - - - - - 15.9 1015.1 -
21/03:00pm WNW 12 15 - - - - - - - 16.0 1015.2 -
21/02:30pm WNW 13 16 - - - - - - - 15.1 1015.4 -
21/02:00pm WNW 13 16 - - - - - - - 14.9 1015.5 -
21/01:30pm WNW 13 17 - - - - - - - 14.9 1015.4 -
21/01:00pm WNW 15 17 - - - - - - - 14.2 1015.6 -
21/12:30pm WNW 13 15 - - - - - - - 14.9 1015.5 -
21/12:00pm WNW 12 14 - - - - - - - 14.3 1015.5 -
21/11:30am WNW 12 15 - - - - - - - 13.6 1015.7 -
21/11:00am WNW 11 14 - - - - - - - 14.1 1015.8 -
21/10:30am NW 11 13 - - - - - - - 13.7 1015.9 -
21/10:00am NW 12 14 - - - - - - - 12.5 1016.0 -
21/09:30am NNW 9 12 - - - - - - - 11.6 1015.8 -
21/09:00am NNW 6 9 - - - - - - - 11.1 1015.6 -
21/08:30am NNW 8 11 - - - - - - - 10.9 1015.7 -
21/08:00am N 6 7 - - - - - - - 10.9 1015.6 -
21/07:30am N 7 8 - - - - - - - 10.3 1015.4 -
21/07:00am NNW 7 9 - - - - - - - 10.1 1015.6 -
21/06:30am N 8 9 - - - - - - - 9.9 1015.2 -
21/06:00am N 7 8 - - - - - - - 9.9 1014.9 -
21/05:30am NNW 6 8 - - - - - - - 10.1 1014.9 -
21/05:00am NNW 7 9 - - - - - - - 10.2 1014.9 -
21/04:30am N 8 11 - - - - - - - 10.0 1014.9 -
21/04:00am N 8 9 - - - - - - - 9.7 1015.0 -
21/03:30am N 8 10 - - - - - - - 9.7 1014.9 -
21/03:00am N 8 9 - - - - - - - 9.6 1015.1 -
21/02:30am N 9 11 - - - - - - - 9.6 1015.1 -
21/02:00am N 8 11 - - - - - - - 9.7 1015.5 -
21/01:30am NNW 9 13 - - - - - - - 10.2 1015.8 -
21/01:00am NNW 7 9 - - - - - - - 9.7 1016.0 -
21/12:30am N 9 11 - - - - - - - 9.7 1016.1 -
21/12:00am NW 11 13 - - - - - - - 10.5 1016.2 -
 
Date/Time
EDT
Wind Sea
Height
m
Swell Vis
km
Cloud Weather Temp
°C
Press
MSL
hPa
Rain since
9am
mm
Dir  Spd
kts
Gust
kts
Height
m
Period
s
Dir
20/11:30pm WNW 14 18 - - - - - - - 10.4 1016.5 -
20/11:00pm NW 13 17 - - - - - - - 11.2 1016.7 -

Other formats

Comma delimited format used in spreadsheet applications
http://www.bom.gov.au/fwo/IDT60701/IDT60701.95961.axf

JavaScript Object Notation format (JSON) in row-major order
http://www.bom.gov.au/fwo/IDT60701/IDT60701.95961.json

Data quality

Most of these data are generated automatically and are frequently updated. Quality checks on data are not normally performed. It is possible for incorrect values to appear. Refer to information at About Latest Weather Observations and please check the disclaimer before using these data.